Terminal Aerodrome Forecast
Issued by NWS Charleston, SC

Home | Current Version | Previous Version | Text Only | Print | Product List | Glossary On
Versions: 1 2 3 4 5 6 7 8 9 10 11 12
000
FTUS42 KCHS 070522
TAFCHS
TAF
KCHS 070522Z 0706/0806 02007KT P6SM BKN200
     FM071100 36012G17KT P6SM VCSH SCT025 BKN045
     FM071400 01015G23KT 6SM -RA BR SCT015 OVC025
     FM072200 35015G21KT P6SM VCSH SCT008 OVC015=

USA.gov is the U.S. government's official web portal to all federal, state and local government web resources and services.